sensor_id;sensor_type;location;lat;lon;timestamp;pressure;altitude;pressure_sealevel;temperature;humidity
11077;BME280;5591;42.626;23.380;2023-04-10T00:00:28;94245.53;;;9.09;100.00
11077;BME280;5591;42.626;23.380;2023-04-10T00:02:57;94297.41;;;9.72;100.00
11077;BME280;5591;42.626;23.380;2023-04-10T00:05:23;94299.03;;;9.58;100.00
11077;BME280;5591;42.626;23.380;2023-04-10T00:07:50;94304.91;;;9.75;100.00
11077;BME280;5591;42.626;23.380;2023-04-10T00:10:18;94286.13;;;9.57;100.00
11077;BME280;5591;42.626;23.380;2023-04-10T00:12:45;94293.69;;;9.37;100.00
11077;BME280;5591;42.626;23.380;2023-04-10T00:15:13;94291.59;;;9.47;100.00
11077;BME280;5591;42.626;23.380;2023-04-10T00:17:39;94287.00;;;9.35;100.00
11077;BME280;5591;42.626;23.380;2023-04-10T00:20:07;94285.28;;;9.56;100.00
11077;BME280;5591;42.626;23.380;2023-04-10T00:22:34;94285.41;;;9.48;100.00
11077;BME280;5591;42.626;23.380;2023-04-10T00:25:01;94293.25;;;9.48;100.00
11077;BME280;5591;42.626;23.380;2023-04-10T00:27:28;94285.94;;;9.58;100.00
11077;BME280;5591;42.626;23.380;2023-04-10T00:29:55;94291.06;;;9.52;100.00
11077;BME280;5591;42.626;23.380;2023-04-10T00:32:23;94285.28;;;9.56;100.00
11077;BME280;5591;42.626;23.380;2023-04-10T00:34:50;94287.03;;;9.49;100.00
11077;BME280;5591;42.626;23.380;2023-04-10T00:37:17;94283.66;;;9.41;100.00
11077;BME280;5591;42.626;23.380;2023-04-10T00:39:44;94273.19;;;9.55;100.00
11077;BME280;5591;42.626;23.380;2023-04-10T00:42:11;94282.31;;;9.59;100.00
11077;BME280;5591;42.626;23.380;2023-04-10T00:44:37;94267.59;;;9.58;100.00
11077;BME280;5591;42.626;23.380;2023-04-10T00:47:06;94272.94;;;9.65;100.00
11077;BME280;5591;42.626;23.380;2023-04-10T00:49:34;94273.09;;;9.63;100.00
11077;BME280;5591;42.626;23.380;2023-04-10T00:52:01;94266.78;;;9.58;100.00
11077;BME280;5591;42.626;23.380;2023-04-10T00:54:29;94266.94;;;9.56;100.00
11077;BME280;5591;42.626;23.380;2023-04-10T00:56:57;94240.94;;;9.11;100.00
11077;BME280;5591;42.626;23.380;2023-04-10T00:59:24;94267.41;;;9.74;100.00
11077;BME280;5591;42.626;23.380;2023-04-10T01:01:52;94259.00;;;9.78;99.49
11077;BME280;5591;42.626;23.380;2023-04-10T01:04:19;94261.16;;;9.75;98.62
11077;BME280;5591;42.626;23.380;2023-04-10T01:06:52;94259.91;;;9.85;95.57
11077;BME280;5591;42.626;23.380;2023-04-10T01:09:31;94254.09;;;10.04;91.50
11077;BME280;5591;42.626;23.380;2023-04-10T01:12:05;94256.72;;;9.90;86.77
11077;BME280;5591;42.626;23.380;2023-04-10T01:14:40;94254.38;;;10.09;85.47
11077;BME280;5591;42.626;23.380;2023-04-10T01:17:12;94255.00;;;9.82;85.48
11077;BME280;5591;42.626;23.380;2023-04-10T01:20:06;94255.84;;;9.83;84.67
11077;BME280;5591;42.626;23.380;2023-04-10T01:22:45;94268.00;;;9.90;84.28
11077;BME280;5591;42.626;23.380;2023-04-10T01:25:39;94258.91;;;9.86;82.15
11077;BME280;5591;42.626;23.380;2023-04-10T01:28:20;94251.75;;;10.09;81.25
11077;BME280;5591;42.626;23.380;2023-04-10T01:30:55;94253.91;;;10.06;82.55
11077;BME280;5591;42.626;23.380;2023-04-10T01:33:27;94254.44;;;10.16;83.27
11077;BME280;5591;42.626;23.380;2023-04-10T01:35:57;94258.97;;;9.93;85.23
11077;BME280;5591;42.626;23.380;2023-04-10T01:38:28;94258.44;;;10.12;84.23
11077;BME280;5591;42.626;23.380;2023-04-10T01:40:57;94246.19;;;10.19;85.24
11077;BME280;5591;42.626;23.380;2023-04-10T01:43:26;94254.41;;;10.30;83.67
11077;BME280;5591;42.626;23.380;2023-04-10T01:45:56;94244.31;;;10.13;85.29
11077;BME280;5591;42.626;23.380;2023-04-10T01:48:25;94253.34;;;10.25;83.83
11077;BME280;5591;42.626;23.380;2023-04-10T01:50:53;94250.75;;;10.10;85.83
11077;BME280;5591;42.626;23.380;2023-04-10T01:53:20;94261.16;;;10.04;86.57
11077;BME280;5591;42.626;23.380;2023-04-10T01:55:49;94246.50;;;10.09;87.12
11077;BME280;5591;42.626;23.380;2023-04-10T01:58:16;94253.06;;;10.20;87.40
11077;BME280;5591;42.626;23.380;2023-04-10T02:00:43;94254.00;;;10.12;89.57
11077;BME280;5591;42.626;23.380;2023-04-10T02:03:11;94250.81;;;10.17;88.97
11077;BME280;5591;42.626;23.380;2023-04-10T02:05:47;94169.00;;;9.72;89.42
11077;BME280;5591;42.626;23.380;2023-04-10T02:08:22;94242.19;;;9.87;91.05
11077;BME280;5591;42.626;23.380;2023-04-10T02:10:54;94250.84;;;10.02;91.25
11077;BME280;5591;42.626;23.380;2023-04-10T02:13:22;94239.88;;;10.13;90.76
11077;BME280;5591;42.626;23.380;2023-04-10T02:15:54;94234.66;;;10.34;89.66
11077;BME280;5591;42.626;23.380;2023-04-10T02:18:23;94229.91;;;10.44;89.12
11077;BME280;5591;42.626;23.380;2023-04-10T02:20:51;94237.09;;;10.36;89.06
11077;BME280;5591;42.626;23.380;2023-04-10T02:23:19;94237.63;;;10.10;91.67
11077;BME280;5591;42.626;23.380;2023-04-10T02:25:46;94234.09;;;10.18;90.09
11077;BME280;5591;42.626;23.380;2023-04-10T02:28:13;94232.47;;;10.17;89.73
11077;BME280;5591;42.626;23.380;2023-04-10T02:30:40;94224.16;;;10.13;90.60
11077;BME280;5591;42.626;23.380;2023-04-10T02:33:06;94224.16;;;10.13;89.77
11077;BME280;5591;42.626;23.380;2023-04-10T02:35:35;94217.38;;;10.04;89.98
11077;BME280;5591;42.626;23.380;2023-04-10T02:38:01;94210.28;;;9.84;92.25
11077;BME280;5591;42.626;23.380;2023-04-10T02:40:28;94210.72;;;9.87;93.43
11077;BME280;5591;42.626;23.380;2023-04-10T02:42:55;94201.41;;;9.85;93.86
11077;BME280;5591;42.626;23.380;2023-04-10T02:45:22;94210.09;;;9.85;95.85
11077;BME280;5591;42.626;23.380;2023-04-10T02:47:49;94203.22;;;9.84;96.55
11077;BME280;5591;42.626;23.380;2023-04-10T02:50:16;94201.22;;;10.01;96.72
11077;BME280;5591;42.626;23.380;2023-04-10T02:52:44;94201.31;;;9.93;98.38
11077;BME280;5591;42.626;23.380;2023-04-10T02:55:11;94200.13;;;9.95;99.24
11077;BME280;5591;42.626;23.380;2023-04-10T02:57:37;94198.56;;;9.80;100.00
11077;BME280;5591;42.626;23.380;2023-04-10T03:00:05;94191.19;;;9.55;100.00
11077;BME280;5591;42.626;23.380;2023-04-10T03:02:32;94195.88;;;9.59;100.00
11077;BME280;5591;42.626;23.380;2023-04-10T03:04:59;94188.34;;;9.71;100.00
11077;BME280;5591;42.626;23.380;2023-04-10T03:07:26;94193.72;;;9.48;100.00
11077;BME280;5591;42.626;23.380;2023-04-10T03:09:54;94199.22;;;9.10;100.00
11077;BME280;5591;42.626;23.380;2023-04-10T03:12:21;94196.44;;;9.26;100.00
11077;BME280;5591;42.626;23.380;2023-04-10T03:14:48;94199.38;;;9.52;100.00
11077;BME280;5591;42.626;23.380;2023-04-10T03:17:15;94198.22;;;9.54;100.00
11077;BME280;5591;42.626;23.380;2023-04-10T03:19:41;94202.00;;;9.52;100.00
11077;BME280;5591;42.626;23.380;2023-04-10T03:22:08;94196.59;;;9.53;100.00
11077;BME280;5591;42.626;23.380;2023-04-10T03:24:35;94201.38;;;9.64;100.00
11077;BME280;5591;42.626;23.380;2023-04-10T03:27:05;94202.56;;;9.47;100.00
11077;BME280;5591;42.626;23.380;2023-04-10T03:29:32;94196.44;;;9.40;100.00
11077;BME280;5591;42.626;23.380;2023-04-10T03:31:59;94142.91;;;9.14;100.00
11077;BME280;5591;42.626;23.380;2023-04-10T03:34:25;94192.06;;;9.47;100.00
11077;BME280;5591;42.626;23.380;2023-04-10T03:36:52;94196.44;;;9.40;100.00
11077;BME280;5591;42.626;23.380;2023-04-10T03:39:19;94188.81;;;9.45;100.00
11077;BME280;5591;42.626;23.380;2023-04-10T03:41:46;94192.66;;;9.28;100.00
11077;BME280;5591;42.626;23.380;2023-04-10T03:44:14;94203.38;;;9.33;100.00
11077;BME280;5591;42.626;23.380;2023-04-10T03:46:41;94204.28;;;9.26;100.00
11077;BME280;5591;42.626;23.380;2023-04-10T03:49:08;94205.28;;;9.39;100.00
11077;BME280;5591;42.626;23.380;2023-04-10T03:51:35;94209.78;;;9.45;100.00
11077;BME280;5591;42.626;23.380;2023-04-10T03:54:01;94206.34;;;9.59;100.00
11077;BME280;5591;42.626;23.380;2023-04-10T03:56:28;94208.69;;;9.69;100.00
11077;BME280;5591;42.626;23.380;2023-04-10T03:58:55;94212.81;;;9.77;99.45
11077;BME280;5591;42.626;23.380;2023-04-10T04:01:23;94215.28;;;10.00;98.27
11077;BME280;5591;42.626;23.380;2023-04-10T04:03:50;94218.22;;;9.90;98.04
11077;BME280;5591;42.626;23.380;2023-04-10T04:06:17;94214.91;;;9.82;100.00
11077;BME280;5591;42.626;23.380;2023-04-10T04:08:44;94215.75;;;9.89;100.00
11077;BME280;5591;42.626;23.380;2023-04-10T04:11:10;94221.53;;;9.99;99.94
11077;BME280;5591;42.626;23.380;2023-04-10T04:13:37;94230.31;;;9.91;100.00
11077;BME280;5591;42.626;23.380;2023-04-10T04:16:05;94225.16;;;10.12;100.00
11077;BME280;5591;42.626;23.380;2023-04-10T04:18:33;94238.47;;;9.82;100.00
11077;BME280;5591;42.626;23.380;2023-04-10T04:21:00;94232.63;;;9.80;100.00
11077;BME280;5591;42.626;23.380;2023-04-10T04:23:27;94231.31;;;10.05;100.00
11077;BME280;5591;42.626;23.380;2023-04-10T04:25:54;94234.78;;;9.77;100.00
11077;BME280;5591;42.626;23.380;2023-04-10T04:28:21;94236.41;;;9.77;100.00
11077;BME280;5591;42.626;23.380;2023-04-10T04:30:48;94238.38;;;9.90;100.00
11077;BME280;5591;42.626;23.380;2023-04-10T04:33:15;94230.94;;;10.08;100.00
11077;BME280;5591;42.626;23.380;2023-04-10T04:35:43;94227.69;;;10.06;100.00
11077;BME280;5591;42.626;23.380;2023-04-10T04:38:10;94236.09;;;10.16;100.00
11077;BME280;5591;42.626;23.380;2023-04-10T04:40:37;94232.31;;;9.89;100.00
11077;BME280;5591;42.626;23.380;2023-04-10T04:43:03;94243.91;;;9.80;100.00
11077;BME280;5591;42.626;23.380;2023-04-10T04:45:30;94241.50;;;9.65;100.00
11077;BME280;5591;42.626;23.380;2023-04-10T04:47:57;94240.03;;;9.77;100.00
11077;BME280;5591;42.626;23.380;2023-04-10T04:50:24;94235.34;;;9.72;100.00
11077;BME280;5591;42.626;23.380;2023-04-10T04:52:52;94239.59;;;9.59;100.00
11077;BME280;5591;42.626;23.380;2023-04-10T04:55:20;94248.59;;;9.85;100.00
11077;BME280;5591;42.626;23.380;2023-04-10T04:57:47;94241.13;;;9.53;100.00
11077;BME280;5591;42.626;23.380;2023-04-10T05:00:14;94250.88;;;9.45;100.00
11077;BME280;5591;42.626;23.380;2023-04-10T05:02:40;94252.94;;;9.78;100.00
11077;BME280;5591;42.626;23.380;2023-04-10T05:05:08;94249.38;;;10.00;100.00
11077;BME280;5591;42.626;23.380;2023-04-10T05:07:34;94243.22;;;10.22;100.00
11077;BME280;5591;42.626;23.380;2023-04-10T05:10:03;94175.44;;;9.69;100.00
11077;BME280;5591;42.626;23.380;2023-04-10T05:12:30;94244.03;;;10.22;100.00
11077;BME280;5591;42.626;23.380;2023-04-10T05:14:57;94238.16;;;10.20;100.00
11077;BME280;5591;42.626;23.380;2023-04-10T05:17:24;94254.84;;;10.34;100.00
11077;BME280;5591;42.626;23.380;2023-04-10T05:19:50;94235.56;;;10.06;100.00
11077;BME280;5591;42.626;23.380;2023-04-10T05:22:17;94257.03;;;10.30;100.00
11077;BME280;5591;42.626;23.380;2023-04-10T05:24:44;94252.34;;;10.47;100.00
11077;BME280;5591;42.626;23.380;2023-04-10T05:27:12;94246.50;;;10.66;100.00
11077;BME280;5591;42.626;23.380;2023-04-10T05:29:39;94248.53;;;10.91;98.76
11077;BME280;5591;42.626;23.380;2023-04-10T05:32:05;94249.25;;;11.06;95.64
11077;BME280;5591;42.626;23.380;2023-04-10T05:34:32;94242.94;;;11.01;94.95
11077;BME280;5591;42.626;23.380;2023-04-10T05:36:59;94247.25;;;10.87;95.49
11077;BME280;5591;42.626;23.380;2023-04-10T05:39:26;94247.00;;;11.03;94.93
11077;BME280;5591;42.626;23.380;2023-04-10T05:41:52;94244.06;;;10.92;93.43
11077;BME280;5591;42.626;23.380;2023-04-10T05:44:21;94250.03;;;11.07;91.41
11077;BME280;5591;42.626;23.380;2023-04-10T05:46:48;94240.53;;;11.06;90.45
11077;BME280;5591;42.626;23.380;2023-04-10T05:49:15;94242.63;;;11.44;88.48
11077;BME280;5591;42.626;23.380;2023-04-10T05:51:42;94244.56;;;11.57;87.96
11077;BME280;5591;42.626;23.380;2023-04-10T05:54:09;94254.13;;;11.71;86.51
11077;BME280;5591;42.626;23.380;2023-04-10T05:56:35;94252.72;;;11.68;87.26
11077;BME280;5591;42.626;23.380;2023-04-10T05:59:02;94261.44;;;11.75;88.02
11077;BME280;5591;42.626;23.380;2023-04-10T06:01:30;94260.84;;;12.14;85.89
11077;BME280;5591;42.626;23.380;2023-04-10T06:03:57;94261.91;;;12.32;83.53
11077;BME280;5591;42.626;23.380;2023-04-10T06:06:25;94249.38;;;12.34;80.78
11077;BME280;5591;42.626;23.380;2023-04-10T06:08:51;94182.31;;;12.17;79.38
11077;BME280;5591;42.626;23.380;2023-04-10T06:11:18;94233.44;;;12.68;77.35
11077;BME280;5591;42.626;23.380;2023-04-10T06:13:45;94262.88;;;13.17;75.13
11077;BME280;5591;42.626;23.380;2023-04-10T06:16:12;94258.00;;;13.01;74.56
11077;BME280;5591;42.626;23.380;2023-04-10T06:18:42;94251.09;;;12.80;76.71
11077;BME280;5591;42.626;23.380;2023-04-10T06:21:09;94258.59;;;13.03;75.13
11077;BME280;5591;42.626;23.380;2023-04-10T06:23:35;94253.34;;;13.42;74.42
11077;BME280;5591;42.626;23.380;2023-04-10T06:26:03;94249.66;;;13.62;71.33
11077;BME280;5591;42.626;23.380;2023-04-10T06:28:29;94254.50;;;13.72;70.40
11077;BME280;5591;42.626;23.380;2023-04-10T06:30:56;94256.72;;;13.81;68.92
11077;BME280;5591;42.626;23.380;2023-04-10T06:33:23;94261.19;;;13.81;69.48
11077;BME280;5591;42.626;23.380;2023-04-10T06:35:51;94245.56;;;13.79;69.06
11077;BME280;5591;42.626;23.380;2023-04-10T06:38:18;94247.03;;;13.49;71.37
11077;BME280;5591;42.626;23.380;2023-04-10T06:40:45;94253.72;;;13.65;69.81
11077;BME280;5591;42.626;23.380;2023-04-10T06:43:12;94254.03;;;14.01;68.05
11077;BME280;5591;42.626;23.380;2023-04-10T06:45:38;94216.16;;;13.76;68.31
11077;BME280;5591;42.626;23.380;2023-04-10T06:48:05;94251.78;;;14.11;67.76
11077;BME280;5591;42.626;23.380;2023-04-10T06:50:32;94256.38;;;14.35;65.79
11077;BME280;5591;42.626;23.380;2023-04-10T06:53:00;94259.41;;;14.38;64.59
11077;BME280;5591;42.626;23.380;2023-04-10T06:55:27;94261.06;;;14.26;65.19
11077;BME280;5591;42.626;23.380;2023-04-10T06:57:54;94252.88;;;13.77;67.82
11077;BME280;5591;42.626;23.380;2023-04-10T07:00:21;94263.69;;;13.30;71.71
11077;BME280;5591;42.626;23.380;2023-04-10T07:02:48;94265.44;;;13.88;70.11
11077;BME280;5591;42.626;23.380;2023-04-10T07:05:15;94268.22;;;14.06;69.15
11077;BME280;5591;42.626;23.380;2023-04-10T07:07:42;94277.19;;;13.92;67.83
11077;BME280;5591;42.626;23.380;2023-04-10T07:10:10;94271.63;;;14.13;68.00
11077;BME280;5591;42.626;23.380;2023-04-10T07:12:38;94267.53;;;14.37;65.69
11077;BME280;5591;42.626;23.380;2023-04-10T07:15:06;94270.88;;;14.06;65.87
11077;BME280;5591;42.626;23.380;2023-04-10T07:17:33;94266.81;;;14.04;66.52
11077;BME280;5591;42.626;23.380;2023-04-10T07:20:00;94269.47;;;13.97;67.38
11077;BME280;5591;42.626;23.380;2023-04-10T07:22:27;94268.19;;;14.26;67.18
11077;BME280;5591;42.626;23.380;2023-04-10T07:24:54;94270.03;;;14.06;65.99
11077;BME280;5591;42.626;23.380;2023-04-10T07:27:22;94274.22;;;14.39;64.89
11077;BME280;5591;42.626;23.380;2023-04-10T07:29:49;94276.06;;;13.36;67.10
11077;BME280;5591;42.626;23.380;2023-04-10T07:32:16;94272.00;;;13.47;70.24
11077;BME280;5591;42.626;23.380;2023-04-10T07:34:42;94251.72;;;13.02;71.97
11077;BME280;5591;42.626;23.380;2023-04-10T07:37:10;94275.81;;;13.70;70.54
11077;BME280;5591;42.626;23.380;2023-04-10T07:39:36;94275.84;;;13.51;71.21
11077;BME280;5591;42.626;23.380;2023-04-10T07:42:03;94261.22;;;13.61;69.55
11077;BME280;5591;42.626;23.380;2023-04-10T07:44:31;94277.22;;;13.73;69.39
11077;BME280;5591;42.626;23.380;2023-04-10T07:46:58;94272.72;;;13.99;68.40
11077;BME280;5591;42.626;23.380;2023-04-10T07:49:25;94273.88;;;14.67;65.30
11077;BME280;5591;42.626;23.380;2023-04-10T07:51:51;94273.75;;;14.86;63.69
11077;BME280;5591;42.626;23.380;2023-04-10T07:54:18;94270.28;;;15.16;62.12
11077;BME280;5591;42.626;23.380;2023-04-10T07:56:45;94264.72;;;15.31;60.67
11077;BME280;5591;42.626;23.380;2023-04-10T07:59:12;94262.56;;;14.91;60.65
11077;BME280;5591;42.626;23.380;2023-04-10T08:01:40;94271.88;;;14.62;62.47
11077;BME280;5591;42.626;23.380;2023-04-10T08:04:07;94243.78;;;14.98;61.18
11077;BME280;5591;42.626;23.380;2023-04-10T08:06:34;94268.03;;;14.89;61.36
11077;BME280;5591;42.626;23.380;2023-04-10T08:09:00;94262.94;;;14.94;60.50
11077;BME280;5591;42.626;23.380;2023-04-10T08:11:28;94267.84;;;14.53;61.84
11077;BME280;5591;42.626;23.380;2023-04-10T08:13:57;94276.78;;;13.89;68.90
11077;BME280;5591;42.626;23.380;2023-04-10T08:16:26;94233.56;;;13.96;65.63
11077;BME280;5591;42.626;23.380;2023-04-10T08:18:56;94276.25;;;14.81;64.00
11077;BME280;5591;42.626;23.380;2023-04-10T08:21:23;94267.63;;;15.23;62.03
11077;BME280;5591;42.626;23.380;2023-04-10T08:23:51;94262.97;;;15.67;60.37
11077;BME280;5591;42.626;23.380;2023-04-10T08:26:18;94266.41;;;15.19;61.51
11077;BME280;5591;42.626;23.380;2023-04-10T08:28:46;94264.97;;;15.72;59.62
11077;BME280;5591;42.626;23.380;2023-04-10T08:31:14;94265.69;;;15.36;60.29
11077;BME280;5591;42.626;23.380;2023-04-10T08:33:41;94207.59;;;14.44;61.11
11077;BME280;5591;42.626;23.380;2023-04-10T08:36:09;94275.97;;;15.20;60.97
11077;BME280;5591;42.626;23.380;2023-04-10T08:38:37;94229.97;;;15.21;60.34
11077;BME280;5591;42.626;23.380;2023-04-10T08:41:04;94268.84;;;15.69;58.27
11077;BME280;5591;42.626;23.380;2023-04-10T08:43:31;94275.97;;;15.20;59.81
11077;BME280;5591;42.626;23.380;2023-04-10T08:46:00;94269.88;;;15.68;58.54
11077;BME280;5591;42.626;23.380;2023-04-10T08:48:31;94259.84;;;15.77;58.49
11077;BME280;5591;42.626;23.380;2023-04-10T08:51:03;94274.66;;;15.60;58.74
11077;BME280;5591;42.626;23.380;2023-04-10T08:53:36;94268.44;;;15.48;58.83
11077;BME280;5591;42.626;23.380;2023-04-10T08:56:06;94273.78;;;15.41;59.75
11077;BME280;5591;42.626;23.380;2023-04-10T08:58:34;94274.53;;;15.24;59.61
11077;BME280;5591;42.626;23.380;2023-04-10T09:01:03;94271.41;;;15.58;59.22
11077;BME280;5591;42.626;23.380;2023-04-10T09:03:31;94265.44;;;14.83;60.79
11077;BME280;5591;42.626;23.380;2023-04-10T09:06:01;94194.44;;;14.31;61.04
11077;BME280;5591;42.626;23.380;2023-04-10T09:08:28;94266.84;;;13.97;66.39
11077;BME280;5591;42.626;23.380;2023-04-10T09:10:57;94250.44;;;14.77;62.36
11077;BME280;5591;42.626;23.380;2023-04-10T09:13:34;94259.88;;;15.52;59.60
11077;BME280;5591;42.626;23.380;2023-04-10T09:16:02;94258.00;;;15.04;59.53
11077;BME280;5591;42.626;23.380;2023-04-10T09:18:46;94258.66;;;15.48;59.79
11077;BME280;5591;42.626;23.380;2023-04-10T09:21:15;94252.72;;;15.95;58.20
11077;BME280;5591;42.626;23.380;2023-04-10T09:23:42;94223.53;;;15.66;58.10
11077;BME280;5591;42.626;23.380;2023-04-10T09:26:25;94250.50;;;16.28;56.65
11077;BME280;5591;42.626;23.380;2023-04-10T09:28:57;94262.34;;;16.26;56.43
11077;BME280;5591;42.626;23.380;2023-04-10T09:31:32;94245.09;;;16.05;57.07
11077;BME280;5591;42.626;23.380;2023-04-10T09:34:11;94229.91;;;16.12;56.78
11077;BME280;5591;42.626;23.380;2023-04-10T09:36:39;94242.50;;;15.99;56.58
11077;BME280;5591;42.626;23.380;2023-04-10T09:39:07;94239.09;;;15.74;57.57
11077;BME280;5591;42.626;23.380;2023-04-10T09:41:46;94242.28;;;15.82;56.99
11077;BME280;5591;42.626;23.380;2023-04-10T09:44:13;94236.59;;;16.15;55.86
11077;BME280;5591;42.626;23.380;2023-04-10T09:46:40;94229.50;;;16.15;55.64
11077;BME280;5591;42.626;23.380;2023-04-10T09:49:06;94236.41;;;16.16;56.50
11077;BME280;5591;42.626;23.380;2023-04-10T09:51:35;94237.34;;;16.04;57.39
11077;BME280;5591;42.626;23.380;2023-04-10T09:54:03;94232.72;;;15.99;56.39
11077;BME280;5591;42.626;23.380;2023-04-10T09:56:37;94233.31;;;16.37;55.40
11077;BME280;5591;42.626;23.380;2023-04-10T09:59:05;94243.38;;;16.11;56.09
11077;BME280;5591;42.626;23.380;2023-04-10T10:01:33;94226.44;;;17.18;53.80
11077;BME280;5591;42.626;23.380;2023-04-10T10:04:01;94228.38;;;17.52;52.55
11077;BME280;5591;42.626;23.380;2023-04-10T10:06:29;94221.75;;;15.96;53.61
11077;BME280;5591;42.626;23.380;2023-04-10T10:09:01;94231.59;;;16.61;53.12
11077;BME280;5591;42.626;23.380;2023-04-10T10:11:31;94224.16;;;16.51;52.14
11077;BME280;5591;42.626;23.380;2023-04-10T10:14:02;94221.63;;;15.91;53.78
11077;BME280;5591;42.626;23.380;2023-04-10T10:16:33;94226.50;;;16.23;52.26
11077;BME280;5591;42.626;23.380;2023-04-10T10:19:08;94211.66;;;16.40;52.26
11077;BME280;5591;42.626;23.380;2023-04-10T10:21:37;94213.38;;;16.94;51.74
11077;BME280;5591;42.626;23.380;2023-04-10T10:24:07;94209.25;;;17.09;50.84
11077;BME280;5591;42.626;23.380;2023-04-10T10:26:34;94207.91;;;16.77;50.34
11077;BME280;5591;42.626;23.380;2023-04-10T10:29:05;94204.81;;;16.80;50.58
11077;BME280;5591;42.626;23.380;2023-04-10T10:31:35;94202.47;;;17.13;50.42
11077;BME280;5591;42.626;23.380;2023-04-10T10:34:02;94198.53;;;18.07;48.76
11077;BME280;5591;42.626;23.380;2023-04-10T10:36:32;94201.50;;;17.49;49.67
11077;BME280;5591;42.626;23.380;2023-04-10T10:39:21;94202.22;;;16.44;51.48
11077;BME280;5591;42.626;23.380;2023-04-10T10:42:01;94185.31;;;16.75;50.32
11077;BME280;5591;42.626;23.380;2023-04-10T10:44:41;94182.81;;;17.03;49.13
11077;BME280;5591;42.626;23.380;2023-04-10T10:47:13;94171.22;;;17.72;47.69
11077;BME280;5591;42.626;23.380;2023-04-10T10:49:54;94184.25;;;17.85;47.84
11077;BME280;5591;42.626;23.380;2023-04-10T10:52:40;94173.88;;;18.35;46.68
11077;BME280;5591;42.626;23.380;2023-04-10T10:55:38;94093.47;;;18.00;46.49
11077;BME280;5591;42.626;23.380;2023-04-10T10:58:05;94131.75;;;18.55;46.36
11077;BME280;5591;42.626;23.380;2023-04-10T11:01:05;94081.84;;;18.90;44.68
11077;BME280;5591;42.626;23.380;2023-04-10T11:03:33;94149.66;;;19.37;45.13
11077;BME280;5591;42.626;23.380;2023-04-10T11:06:00;94162.56;;;18.84;44.74
11077;BME280;5591;42.626;23.380;2023-04-10T11:08:42;94134.75;;;19.57;43.99
11077;BME280;5591;42.626;23.380;2023-04-10T11:11:17;94134.72;;;19.74;42.73
11077;BME280;5591;42.626;23.380;2023-04-10T11:14:12;94131.34;;;19.40;43.65
11077;BME280;5591;42.626;23.380;2023-04-10T11:16:46;94127.88;;;19.78;42.52
11077;BME280;5591;42.626;23.380;2023-04-10T11:19:13;94158.09;;;19.88;42.70
11077;BME280;5591;42.626;23.380;2023-04-10T11:22:01;94135.78;;;19.35;43.32
11077;BME280;5591;42.626;23.380;2023-04-10T11:24:30;94124.66;;;19.21;43.86
11077;BME280;5591;42.626;23.380;2023-04-10T11:27:49;94117.00;;;19.25;42.87
11077;BME280;5591;42.626;23.380;2023-04-10T11:30:30;94123.56;;;18.89;43.35
11077;BME280;5591;42.626;23.380;2023-04-10T11:33:00;94128.69;;;17.95;43.81
11077;BME280;5591;42.626;23.380;2023-04-10T11:35:27;94080.56;;;17.30;44.42
11077;BME280;5591;42.626;23.380;2023-04-10T11:38:14;94113.78;;;17.32;44.50
11077;BME280;5591;42.626;23.380;2023-04-10T11:41:08;94105.25;;;16.96;46.08
11077;BME280;5591;42.626;23.380;2023-04-10T11:43:35;94121.13;;;18.15;44.95
11077;BME280;5591;42.626;23.380;2023-04-10T11:46:05;94119.72;;;18.24;45.92
11077;BME280;5591;42.626;23.380;2023-04-10T11:48:35;94115.91;;;18.60;45.26
11077;BME280;5591;42.626;23.380;2023-04-10T11:51:09;94112.75;;;19.45;43.53
11077;BME280;5591;42.626;23.380;2023-04-10T11:53:36;94119.13;;;19.44;43.61
11077;BME280;5591;42.626;23.380;2023-04-10T11:56:04;94121.47;;;19.41;43.80
11077;BME280;5591;42.626;23.380;2023-04-10T11:58:32;94115.41;;;18.07;45.38
11077;BME280;5591;42.626;23.380;2023-04-10T12:01:01;94119.03;;;16.86;46.49
11077;BME280;5591;42.626;23.380;2023-04-10T12:03:36;94124.47;;;16.68;47.86
11077;BME280;5591;42.626;23.380;2023-04-10T12:06:06;94121.94;;;16.85;48.24
11077;BME280;5591;42.626;23.380;2023-04-10T12:08:34;94123.19;;;16.12;50.23
11077;BME280;5591;42.626;23.380;2023-04-10T12:11:01;94118.28;;;16.45;49.94
11077;BME280;5591;42.626;23.380;2023-04-10T12:13:29;94108.06;;;15.53;51.79
11077;BME280;5591;42.626;23.380;2023-04-10T12:16:01;94118.31;;;15.97;52.62
11077;BME280;5591;42.626;23.380;2023-04-10T12:18:28;94126.13;;;16.51;51.39
11077;BME280;5591;42.626;23.380;2023-04-10T12:20:57;94126.97;;;16.04;53.88
11077;BME280;5591;42.626;23.380;2023-04-10T12:23:26;94136.53;;;15.09;60.00
11077;BME280;5591;42.626;23.380;2023-04-10T12:26:05;94134.59;;;16.12;58.71
11077;BME280;5591;42.626;23.380;2023-04-10T12:28:33;94127.47;;;16.13;58.48
11077;BME280;5591;42.626;23.380;2023-04-10T12:31:00;94127.72;;;16.93;56.67
11077;BME280;5591;42.626;23.380;2023-04-10T12:33:27;94133.59;;;17.18;55.16
11077;BME280;5591;42.626;23.380;2023-04-10T12:35:54;94126.81;;;16.99;56.09
11077;BME280;5591;42.626;23.380;2023-04-10T12:38:38;94139.16;;;16.53;57.33
11077;BME280;5591;42.626;23.380;2023-04-10T12:41:06;94130.34;;;15.21;60.32
11077;BME280;5591;42.626;23.380;2023-04-10T12:43:34;94081.19;;;14.72;68.08
11077;BME280;5591;42.626;23.380;2023-04-10T12:46:01;94131.78;;;15.78;64.45
11077;BME280;5591;42.626;23.380;2023-04-10T12:48:28;94133.94;;;15.51;62.25
11077;BME280;5591;42.626;23.380;2023-04-10T12:50:55;94129.63;;;16.34;59.01
11077;BME280;5591;42.626;23.380;2023-04-10T12:53:23;94122.34;;;16.59;57.42
11077;BME280;5591;42.626;23.380;2023-04-10T12:56:02;94115.53;;;17.27;53.15
11077;BME280;5591;42.626;23.380;2023-04-10T12:58:29;94116.09;;;17.52;51.63
11077;BME280;5591;42.626;23.380;2023-04-10T13:00:57;94139.72;;;16.96;52.40
11077;BME280;5591;42.626;23.380;2023-04-10T13:03:25;94116.97;;;16.36;52.73
11077;BME280;5591;42.626;23.380;2023-04-10T13:05:52;94121.41;;;14.74;56.36
11077;BME280;5591;42.626;23.380;2023-04-10T13:08:19;94111.72;;;14.68;58.52
11077;BME280;5591;42.626;23.380;2023-04-10T13:10:46;94114.06;;;15.78;55.46